Time;durP1;ratioP1;P1;durP2;ratioP2;P2;SDS_P1;SDS_P2;PMS_P1;PMS_P2;Temp;Humidity;BMP_temperature;BMP_pressure;BME280_temperature;BME280_humidity;BME280_pressure;Samples;Min_cycle;Max_cycle;Signal;HPM_P1;HPM_P2
2021/11/29 00:01:34;;;;;;;15.43;9.30;;;;;;;;;;5003749;28;20029;-46
2021/11/29 00:04:00;;;;;;;40.17;23.40;;;;;;;;;;5003612;28;20021;-46
2021/11/29 00:06:33;;;;;;;31.55;16.58;;;;;;;;;;5004420;28;20524;-47
2021/11/29 00:09:00;;;;;;;20.35;11.70;;;;;;;;;;5004231;28;20096;-46
2021/11/29 00:11:26;;;;;;;13.13;8.73;;;;;;;;;;5002871;28;20086;-45
2021/11/29 00:13:52;;;;;;;22.00;12.32;;;;;;;;;;5003324;28;20032;-48
2021/11/29 00:16:18;;;;;;;14.25;8.98;;;;;;;;;;5003649;28;20145;-48
2021/11/29 00:18:44;;;;;;;9.45;6.50;;;;;;;;;;5003407;28;20508;-50
2021/11/29 00:21:12;;;;;;;28.33;15.75;;;;;;;;;;5003773;28;20140;-45
2021/11/29 00:23:39;;;;;;;11.15;7.47;;;;;;;;;;5003212;28;20148;-47
2021/11/29 00:26:05;;;;;;;11.63;6.72;;;;;;;;;;5003369;28;20028;-48
2021/11/29 00:28:31;;;;;;;16.73;10.02;;;;;;;;;;5003758;28;20087;-50
2021/11/29 00:31:00;;;;;;;42.75;23.50;;;;;;;;;;5003452;28;20041;-46
2021/11/29 00:33:26;;;;;;;21.67;11.77;;;;;;;;;;5003817;28;20021;-45
2021/11/29 00:35:52;;;;;;;13.32;8.80;;;;;;;;;;5003852;28;20033;-46
2021/11/29 00:38:18;;;;;;;11.85;7.45;;;;;;;;;;5003577;28;20025;-45
2021/11/29 00:40:44;;;;;;;20.80;12.43;;;;;;;;;;5003437;28;20026;-45
2021/11/29 00:43:10;;;;;;;19.95;12.23;;;;;;;;;;5003262;28;20026;-47
2021/11/29 00:45:37;;;;;;;30.13;16.40;;;;;;;;;;5003210;28;20767;-45
2021/11/29 00:48:03;;;;;;;26.65;15.90;;;;;;;;;;5003565;28;20032;-47
2021/11/29 00:50:30;;;;;;;20.13;11.30;;;;;;;;;;5003696;28;20354;-49
2021/11/29 00:52:58;;;;;;;7.90;5.47;;;;;;;;;;5003564;28;20144;-52
2021/11/29 00:55:24;;;;;;;7.88;4.90;;;;;;;;;;5003332;28;20053;-50
2021/11/29 00:57:50;;;;;;;24.42;12.20;;;;;;;;;;5003575;28;20029;-52
2021/11/29 01:00:18;;;;;;;13.10;8.73;;;;;;;;;;5003010;28;20033;-49
2021/11/29 01:02:45;;;;;;;10.55;6.22;;;;;;;;;;5002994;28;20036;-49
2021/11/29 01:05:11;;;;;;;14.02;9.77;;;;;;;;;;5003273;28;20030;-50
2021/11/29 01:07:37;;;;;;;19.30;9.27;;;;;;;;;;5003030;28;20128;-46
2021/11/29 01:10:07;;;;;;;6.93;4.47;;;;;;;;;;5002712;28;20131;-49
2021/11/29 01:12:33;;;;;;;9.02;5.43;;;;;;;;;;5003200;28;20022;-51
2021/11/29 01:15:02;;;;;;;7.60;4.78;;;;;;;;;;5002849;28;20048;-47
2021/11/29 01:17:28;;;;;;;6.15;4.15;;;;;;;;;;5003004;28;20030;-49
2021/11/29 01:19:54;;;;;;;7.45;4.88;;;;;;;;;;5001032;28;20038;-46
2021/11/29 01:22:20;;;;;;;10.73;6.43;;;;;;;;;;5004984;28;20923;-48
2021/11/29 01:24:46;;;;;;;14.98;8.30;;;;;;;;;;5007103;28;20026;-47
2021/11/29 01:27:12;;;;;;;8.77;5.45;;;;;;;;;;5006868;28;20043;-52
2021/11/29 01:29:38;;;;;;;8.60;5.40;;;;;;;;;;5007088;28;20117;-48
2021/11/29 01:32:07;;;;;;;13.20;8.18;;;;;;;;;;5051617;28;20029;-51
2021/11/29 01:34:33;;;;;;;11.30;6.55;;;;;;;;;;5056653;28;20032;-45
2021/11/29 01:36:59;;;;;;;8.32;4.72;;;;;;;;;;5056438;28;20024;-48
2021/11/29 01:39:25;;;;;;;6.43;3.72;;;;;;;;;;5056390;28;20021;-49
2021/11/29 01:41:51;;;;;;;10.32;5.95;;;;;;;;;;5056326;28;20021;-46
2021/11/29 01:44:18;;;;;;;21.73;11.77;;;;;;;;;;5056151;28;20021;-45
2021/11/29 01:46:45;;;;;;;20.08;11.20;;;;;;;;;;5056356;28;20064;-46
2021/11/29 01:49:16;;;;;;;8.18;5.95;;;;;;;;;;5056374;28;20477;-46
2021/11/29 01:51:44;;;;;;;17.67;8.68;;;;;;;;;;5056274;28;20055;-46
2021/11/29 01:54:13;;;;;;;13.48;6.55;;;;;;;;;;5056028;28;20493;-46
2021/11/29 01:56:39;;;;;;;11.82;7.40;;;;;;;;;;5056089;28;20033;-45
2021/11/29 01:59:06;;;;;;;12.10;6.72;;;;;;;;;;5056173;28;20112;-46
2021/11/29 02:01:33;;;;;;;14.57;7.80;;;;;;;;;;5055911;28;20359;-47
2021/11/29 02:03:59;;;;;;;10.73;6.40;;;;;;;;;;5056099;28;20025;-45
2021/11/29 02:06:31;;;;;;;12.75;7.70;;;;;;;;;;5055913;28;20032;-46
2021/11/29 02:08:58;;;;;;;8.68;5.25;;;;;;;;;;5056016;28;20032;-52
2021/11/29 02:11:24;;;;;;;7.05;3.92;;;;;;;;;;5055696;28;20496;-48
2021/11/29 02:13:54;;;;;;;6.65;4.22;;;;;;;;;;5055468;28;20057;-46
2021/11/29 02:16:22;;;;;;;11.30;7.03;;;;;;;;;;5055621;28;20036;-46
2021/11/29 02:18:51;;;;;;;8.55;5.25;;;;;;;;;;5055718;28;20035;-53
2021/11/29 02:21:19;;;;;;;14.80;9.27;;;;;;;;;;5055603;28;20108;-51
2021/11/29 02:23:47;;;;;;;10.90;6.25;;;;;;;;;;5055479;28;20154;-50
2021/11/29 02:26:14;;;;;;;4.95;3.15;;;;;;;;;;5055652;28;20511;-52
2021/11/29 02:28:45;;;;;;;12.70;8.10;;;;;;;;;;5055293;28;20032;-52
2021/11/29 02:31:16;;;;;;;18.03;9.53;;;;;;;;;;5050121;28;20052;-52
2021/11/29 02:33:45;;;;;;;7.93;5.23;;;;;;;;;;5034478;28;20079;-54
2021/11/29 02:36:14;;;;;;;7.47;5.25;;;;;;;;;;5035398;28;20025;-52
2021/11/29 02:38:42;;;;;;;8.02;5.47;;;;;;;;;;5035438;28;20021;-52
2021/11/29 02:41:08;;;;;;;8.90;5.93;;;;;;;;;;5033949;28;20397;-50
2021/11/29 02:43:35;;;;;;;5.15;3.95;;;;;;;;;;5035124;28;20083;-51
2021/11/29 02:46:01;;;;;;;7.88;4.82;;;;;;;;;;5035169;28;20040;-51
2021/11/29 02:48:44;;;;;;;8.38;3.95;;;;;;;;;;5035514;28;20017;-52
2021/11/29 02:51:24;;;;;;;9.85;6.78;;;;;;;;;;5035010;28;20053;-52
2021/11/29 02:53:52;;;;;;;10.68;7.18;;;;;;;;;;5035175;28;20026;-52
2021/11/29 02:56:19;;;;;;;9.57;5.90;;;;;;;;;;5034953;28;20079;-47
2021/11/29 02:58:45;;;;;;;7.22;4.53;;;;;;;;;;5035018;28;20485;-48
2021/11/29 03:01:13;;;;;;;8.90;6.15;;;;;;;;;;5034961;28;20034;-52
2021/11/29 03:03:47;;;;;;;10.48;6.25;;;;;;;;;;5034888;28;20040;-52
2021/11/29 03:06:13;;;;;;;16.40;9.82;;;;;;;;;;5035334;28;20369;-52
2021/11/29 03:08:40;;;;;;;16.70;10.45;;;;;;;;;;5034744;28;20024;-50
2021/11/29 03:11:06;;;;;;;11.60;6.75;;;;;;;;;;5034781;28;20029;-52
2021/11/29 03:13:33;;;;;;;7.57;5.28;;;;;;;;;;5033149;28;20482;-51
2021/11/29 03:16:02;;;;;;;8.90;6.00;;;;;;;;;;5034705;28;20050;-49
2021/11/29 03:18:38;;;;;;;9.98;7.00;;;;;;;;;;5034644;28;20024;-52
2021/11/29 03:21:05;;;;;;;10.68;7.75;;;;;;;;;;5034525;28;20021;-52
2021/11/29 03:23:32;;;;;;;10.00;6.60;;;;;;;;;;5034439;28;20614;-50
2021/11/29 03:26:00;;;;;;;10.45;8.02;;;;;;;;;;5034292;28;20033;-49
2021/11/29 03:28:27;;;;;;;9.13;7.20;;;;;;;;;;5034496;28;20027;-50
2021/11/29 03:30:53;;;;;;;17.88;10.13;;;;;;;;;;5034227;28;20033;-46
2021/11/29 03:33:19;;;;;;;20.73;12.10;;;;;;;;;;5034237;28;20026;-52
2021/11/29 03:35:45;;;;;;;17.35;10.73;;;;;;;;;;5034245;28;20030;-50
2021/11/29 03:38:12;;;;;;;16.85;10.32;;;;;;;;;;5034060;28;20018;-51
2021/11/29 03:40:38;;;;;;;12.25;8.80;;;;;;;;;;5034105;28;20026;-51
2021/11/29 03:43:05;;;;;;;14.40;9.23;;;;;;;;;;5034193;28;20052;-50
2021/11/29 03:45:31;;;;;;;14.82;9.50;;;;;;;;;;5033862;28;20037;-51
2021/11/29 03:47:58;;;;;;;15.45;8.93;;;;;;;;;;5034043;28;20100;-46
2021/11/29 03:50:24;;;;;;;15.50;8.98;;;;;;;;;;5032652;28;20038;-46
2021/11/29 03:52:50;;;;;;;10.35;8.00;;;;;;;;;;5033785;28;20067;-45
2021/11/29 03:55:16;;;;;;;14.40;10.00;;;;;;;;;;5034010;28;20378;-49
2021/11/29 03:57:44;;;;;;;11.52;8.73;;;;;;;;;;5033920;28;20032;-45
2021/11/29 04:00:11;;;;;;;13.32;9.13;;;;;;;;;;5033928;28;20017;-47
2021/11/29 04:02:37;;;;;;;11.57;7.72;;;;;;;;;;5033895;28;20025;-46
2021/11/29 04:05:03;;;;;;;13.50;10.23;;;;;;;;;;5033801;28;20022;-47
2021/11/29 04:07:29;;;;;;;17.05;11.30;;;;;;;;;;5033685;28;20037;-47
2021/11/29 04:09:56;;;;;;;16.80;10.98;;;;;;;;;;5033648;28;20018;-46
2021/11/29 04:12:22;;;;;;;15.05;10.80;;;;;;;;;;5033579;28;20504;-49
2021/11/29 04:14:48;;;;;;;13.95;10.27;;;;;;;;;;5033436;28;20042;-46
2021/11/29 04:17:15;;;;;;;12.88;9.35;;;;;;;;;;5033763;28;20076;-45
2021/11/29 04:19:44;;;;;;;12.85;10.07;;;;;;;;;;5033560;28;20036;-49
2021/11/29 04:22:10;;;;;;;11.93;9.48;;;;;;;;;;5033303;28;20075;-46
2021/11/29 04:24:39;;;;;;;10.73;9.27;;;;;;;;;;5033647;28;20075;-47
2021/11/29 04:27:06;;;;;;;13.50;10.55;;;;;;;;;;5033565;28;20030;-48
2021/11/29 04:29:35;;;;;;;17.38;12.15;;;;;;;;;;5033640;28;20030;-45
2021/11/29 04:32:01;;;;;;;13.52;10.10;;;;;;;;;;5033303;28;20461;-45
2021/11/29 04:34:27;;;;;;;13.32;10.25;;;;;;;;;;5033285;28;20028;-48
2021/11/29 04:36:53;;;;;;;14.63;10.07;;;;;;;;;;5033074;28;20025;-48
2021/11/29 04:39:19;;;;;;;24.20;15.57;;;;;;;;;;5033173;28;20474;-48
2021/11/29 04:41:45;;;;;;;13.00;9.48;;;;;;;;;;5033125;28;20025;-47
2021/11/29 04:44:12;;;;;;;23.45;15.65;;;;;;;;;;5032987;28;20017;-51
2021/11/29 04:46:38;;;;;;;19.55;13.50;;;;;;;;;;5033149;28;20133;-48
2021/11/29 04:49:04;;;;;;;26.33;17.38;;;;;;;;;;5033223;28;20104;-46
2021/11/29 04:51:30;;;;;;;20.42;13.93;;;;;;;;;;5033120;28;20092;-48
2021/11/29 04:53:56;;;;;;;28.17;17.65;;;;;;;;;;5033156;28;20052;-50
2021/11/29 04:56:23;;;;;;;43.88;26.10;;;;;;;;;;5033379;28;20026;-47
2021/11/29 04:58:49;;;;;;;32.72;21.40;;;;;;;;;;5037363;28;20017;-51
2021/11/29 05:01:15;;;;;;;29.83;17.63;;;;;;;;;;5037110;28;20105;-50
2021/11/29 05:03:46;;;;;;;20.52;14.50;;;;;;;;;;5037056;28;20045;-49
2021/11/29 05:06:12;;;;;;;14.90;11.05;;;;;;;;;;5037042;28;20525;-50
2021/11/29 05:08:38;;;;;;;18.40;12.80;;;;;;;;;;5037051;28;20060;-49
2021/11/29 05:11:09;;;;;;;27.20;16.95;;;;;;;;;;5037024;28;20112;-54
2021/11/29 05:13:35;;;;;;;21.98;15.27;;;;;;;;;;5036907;28;20020;-50
2021/11/29 05:16:01;;;;;;;32.72;20.05;;;;;;;;;;5036916;28;20112;-52
2021/11/29 05:18:30;;;;;;;19.17;14.40;;;;;;;;;;5036959;28;20033;-52
2021/11/29 05:20:56;;;;;;;29.05;19.23;;;;;;;;;;5036713;28;20022;-54
2021/11/29 05:23:22;;;;;;;18.58;14.35;;;;;;;;;;5036770;28;20068;-54
2021/11/29 05:25:53;;;;;;;30.05;19.52;;;;;;;;;;5036743;28;20029;-54
2021/11/29 05:28:19;;;;;;;25.67;16.90;;;;;;;;;;5036805;28;20531;-53
2021/11/29 05:30:45;;;;;;;24.05;14.68;;;;;;;;;;5036663;28;20278;-53
2021/11/29 05:33:14;;;;;;;26.10;15.82;;;;;;;;;;5036574;28;20553;-54
2021/11/29 05:35:40;;;;;;;29.58;16.75;;;;;;;;;;5036407;28;20404;-53
2021/11/29 05:38:06;;;;;;;31.50;19.98;;;;;;;;;;5036507;28;20104;-50
2021/11/29 05:40:32;;;;;;;26.48;17.65;;;;;;;;;;5036458;28;20062;-53
2021/11/29 05:42:59;;;;;;;23.33;13.77;;;;;;;;;;5036509;28;20167;-51
2021/11/29 05:45:25;;;;;;;23.98;15.05;;;;;;;;;;5036579;28;20113;-53
2021/11/29 05:47:53;;;;;;;23.23;15.18;;;;;;;;;;5036338;28;20036;-48
2021/11/29 05:50:20;;;;;;;21.92;14.07;;;;;;;;;;5036126;28;20495;-50
2021/11/29 05:52:46;;;;;;;23.40;15.35;;;;;;;;;;5036200;28;20033;-48
2021/11/29 05:55:13;;;;;;;19.73;13.50;;;;;;;;;;5036094;28;20096;-47
2021/11/29 05:57:42;;;;;;;26.45;15.40;;;;;;;;;;5035936;28;20458;-48
2021/11/29 06:00:10;;;;;;;19.75;13.15;;;;;;;;;;5036092;28;20044;-46
2021/11/29 06:02:38;;;;;;;19.92;13.27;;;;;;;;;;5035867;28;20486;-54
2021/11/29 06:05:05;;;;;;;20.42;13.20;;;;;;;;;;5035867;28;20029;-54
2021/11/29 06:07:31;;;;;;;19.35;14.60;;;;;;;;;;5034616;28;20029;-47
2021/11/29 06:09:57;;;;;;;29.58;19.48;;;;;;;;;;5036125;28;20096;-47
2021/11/29 06:12:23;;;;;;;32.42;19.38;;;;;;;;;;5035744;28;20033;-52
2021/11/29 06:14:49;;;;;;;32.47;19.50;;;;;;;;;;5035639;28;20482;-47
2021/11/29 06:17:15;;;;;;;26.65;17.83;;;;;;;;;;5035952;28;20156;-48
2021/11/29 06:19:41;;;;;;;21.45;15.18;;;;;;;;;;5035804;28;20022;-54
2021/11/29 06:22:07;;;;;;;27.27;17.08;;;;;;;;;;5035580;28;20036;-54
2021/11/29 06:24:33;;;;;;;31.10;17.77;;;;;;;;;;5035771;28;20022;-54
2021/11/29 06:26:59;;;;;;;25.80;16.67;;;;;;;;;;5035605;28;20029;-52
2021/11/29 06:29:25;;;;;;;22.63;16.38;;;;;;;;;;5035619;28;20535;-52
2021/11/29 06:31:51;;;;;;;25.02;16.70;;;;;;;;;;5035615;28;20048;-49
2021/11/29 06:34:17;;;;;;;22.25;15.73;;;;;;;;;;5036052;28;20030;-51
2021/11/29 06:36:46;;;;;;;26.38;17.80;;;;;;;;;;5035625;28;20022;-55
2021/11/29 06:39:12;;;;;;;29.95;19.15;;;;;;;;;;5035592;28;20423;-48
2021/11/29 06:41:38;;;;;;;47.53;26.63;;;;;;;;;;5033893;28;20049;-51
2021/11/29 06:44:08;;;;;;;51.35;29.50;;;;;;;;;;5035606;28;20025;-51
2021/11/29 06:46:37;;;;;;;41.70;25.05;;;;;;;;;;5035323;28;20061;-50
2021/11/29 06:49:03;;;;;;;23.08;15.60;;;;;;;;;;5035833;28;20048;-55
2021/11/29 06:51:29;;;;;;;27.55;17.20;;;;;;;;;;5035277;28;20033;-48
2021/11/29 06:53:57;;;;;;;22.08;15.27;;;;;;;;;;5035441;28;20079;-50
2021/11/29 06:56:23;;;;;;;23.67;15.55;;;;;;;;;;5035101;28;20025;-55
2021/11/29 06:58:49;;;;;;;24.35;15.10;;;;;;;;;;5035026;28;20018;-54
2021/11/29 07:01:15;;;;;;;23.38;16.80;;;;;;;;;;5034960;28;20355;-54
2021/11/29 07:03:42;;;;;;;28.67;16.83;;;;;;;;;;5035051;28;20470;-53
2021/11/29 07:06:08;;;;;;;26.48;16.90;;;;;;;;;;5017230;28;20421;-52
2021/11/29 07:08:35;;;;;;;34.25;18.63;;;;;;;;;;5033454;28;20030;-52
2021/11/29 07:11:01;;;;;;;30.55;19.38;;;;;;;;;;5033296;28;20045;-53
2021/11/29 07:13:27;;;;;;;29.27;19.02;;;;;;;;;;5034896;28;20033;-52
2021/11/29 07:15:53;;;;;;;29.52;18.13;;;;;;;;;;5033263;28;20041;-53
2021/11/29 07:18:20;;;;;;;31.60;18.70;;;;;;;;;;5035117;28;20159;-51
2021/11/29 07:20:46;;;;;;;29.73;17.52;;;;;;;;;;5034070;28;20458;-52
2021/11/29 07:23:12;;;;;;;33.55;20.27;;;;;;;;;;5034530;28;20032;-56
2021/11/29 07:25:38;;;;;;;39.17;23.10;;;;;;;;;;5034655;28;20045;-48
2021/11/29 07:28:04;;;;;;;35.67;21.60;;;;;;;;;;5034469;28;20030;-47
2021/11/29 07:30:33;;;;;;;29.85;18.85;;;;;;;;;;5034569;28;20021;-49
2021/11/29 07:33:00;;;;;;;36.63;22.45;;;;;;;;;;5034680;28;20043;-52
2021/11/29 07:35:27;;;;;;;28.08;17.98;;;;;;;;;;5034239;28;20033;-48
2021/11/29 07:37:59;;;;;;;32.25;19.48;;;;;;;;;;5034370;28;20382;-47
2021/11/29 07:40:28;;;;;;;33.33;20.75;;;;;;;;;;5033059;28;20025;-53
2021/11/29 07:43:05;;;;;;;31.48;20.25;;;;;;;;;;5034208;28;20461;-47
2021/11/29 07:45:31;;;;;;;48.35;26.40;;;;;;;;;;5034147;28;20029;-49
2021/11/29 07:47:57;;;;;;;39.42;23.77;;;;;;;;;;5034108;28;20030;-48
2021/11/29 07:50:24;;;;;;;35.67;23.48;;;;;;;;;;5032768;28;20025;-46
2021/11/29 07:52:50;;;;;;;41.97;24.63;;;;;;;;;;5033985;28;20116;-46
2021/11/29 07:55:21;;;;;;;40.35;23.55;;;;;;;;;;5034226;28;20021;-47
2021/11/29 07:57:47;;;;;;;35.22;21.35;;;;;;;;;;5034189;28;20095;-46
2021/11/29 08:00:20;;;;;;;33.92;21.20;;;;;;;;;;5032642;28;20172;-49
2021/11/29 08:02:49;;;;;;;42.35;25.05;;;;;;;;;;5034280;28;20077;-45
2021/11/29 08:05:15;;;;;;;35.45;22.25;;;;;;;;;;5033826;28;20083;-45
2021/11/29 08:07:41;;;;;;;32.90;20.55;;;;;;;;;;5033841;28;20028;-47
2021/11/29 08:10:10;;;;;;;50.15;28.02;;;;;;;;;;5033906;28;20100;-54
2021/11/29 08:12:38;;;;;;;45.78;27.33;;;;;;;;;;5033622;28;20482;-52
2021/11/29 08:15:05;;;;;;;55.22;30.33;;;;;;;;;;5033468;28;20437;-54
2021/11/29 08:17:31;;;;;;;36.30;23.63;;;;;;;;;;5033479;28;20025;-48
2021/11/29 08:19:57;;;;;;;34.80;22.88;;;;;;;;;;5033707;28;20083;-55
2021/11/29 08:22:23;;;;;;;53.03;32.92;;;;;;;;;;5033835;28;20032;-53
2021/11/29 08:24:49;;;;;;;48.60;31.13;;;;;;;;;;5033493;28;20029;-49
2021/11/29 08:27:15;;;;;;;37.88;25.83;;;;;;;;;;5033613;28;20026;-52
2021/11/29 08:29:41;;;;;;;44.50;27.27;;;;;;;;;;5033461;28;20083;-52
2021/11/29 08:32:08;;;;;;;84.68;45.83;;;;;;;;;;5032416;28;20040;-47
2021/11/29 08:37:39;;;;;;;70.93;38.75;;;;;;;;;;5033430;28;20147;-48
2021/11/29 08:40:05;;;;;;;66.63;36.17;;;;;;;;;;5033191;28;20469;-48
2021/11/29 08:42:31;;;;;;;58.08;34.58;;;;;;;;;;5033305;28;20512;-51
2021/11/29 08:45:00;;;;;;;40.50;24.38;;;;;;;;;;5033468;28;20021;-54
2021/11/29 08:47:27;;;;;;;38.40;22.98;;;;;;;;;;5031959;28;20029;-54
2021/11/29 08:49:58;;;;;;;48.10;27.23;;;;;;;;;;5033279;28;20017;-56
2021/11/29 08:52:33;;;;;;;38.05;23.08;;;;;;;;;;5033066;28;20099;-53
2021/11/29 08:54:59;;;;;;;41.30;23.90;;;;;;;;;;5033261;28;20034;-51
2021/11/29 08:57:25;;;;;;;42.13;23.80;;;;;;;;;;5033135;28;20466;-46
2021/11/29 08:59:51;;;;;;;43.88;25.67;;;;;;;;;;5033062;28;20026;-46
2021/11/29 09:02:19;;;;;;;35.00;20.38;;;;;;;;;;5033246;28;20477;-53
2021/11/29 09:04:45;;;;;;;38.33;22.20;;;;;;;;;;5033141;28;20017;-53
2021/11/29 09:07:11;;;;;;;28.05;18.13;;;;;;;;;;5033131;28;20052;-49
2021/11/29 09:09:38;;;;;;;34.70;19.27;;;;;;;;;;5031592;28;20394;-48
2021/11/29 09:12:04;;;;;;;23.45;16.27;;;;;;;;;;5031531;28;20033;-49
2021/11/29 09:14:30;;;;;;;24.25;16.33;;;;;;;;;;5032835;28;20452;-46
2021/11/29 09:16:57;;;;;;;31.42;18.90;;;;;;;;;;5033126;28;20448;-50
2021/11/29 09:19:23;;;;;;;26.92;17.35;;;;;;;;;;5033130;28;20096;-48
2021/11/29 09:21:49;;;;;;;26.60;18.15;;;;;;;;;;5033048;28;20018;-48
2021/11/29 09:24:16;;;;;;;27.70;17.58;;;;;;;;;;5033056;28;20173;-46
2021/11/29 09:26:42;;;;;;;32.38;18.08;;;;;;;;;;5032807;28;20156;-48
2021/11/29 09:29:08;;;;;;;20.30;15.20;;;;;;;;;;5033021;28;20030;-48
2021/11/29 09:31:34;;;;;;;20.85;15.90;;;;;;;;;;5032997;28;20499;-52
2021/11/29 09:34:09;;;;;;;43.05;23.30;;;;;;;;;;5032940;28;20025;-47
2021/11/29 09:36:36;;;;;;;36.55;21.10;;;;;;;;;;5033230;28;20049;-47
2021/11/29 09:39:03;;;;;;;46.17;26.30;;;;;;;;;;5032805;28;20022;-45
2021/11/29 09:41:33;;;;;;;33.58;20.15;;;;;;;;;;5032595;28;20025;-46
2021/11/29 09:44:08;;;;;;;28.90;19.20;;;;;;;;;;5035769;28;20022;-49
2021/11/29 09:46:34;;;;;;;25.42;17.33;;;;;;;;;;5036583;28;20029;-47
2021/11/29 09:49:02;;;;;;;35.10;22.05;;;;;;;;;;5036369;28;20035;-49
2021/11/29 09:51:28;;;;;;;43.10;25.05;;;;;;;;;;5036307;28;20017;-48
2021/11/29 09:53:54;;;;;;;49.97;27.58;;;;;;;;;;5036294;28;20038;-46
2021/11/29 09:56:21;;;;;;;40.53;24.75;;;;;;;;;;5036429;28;20025;-50
2021/11/29 09:58:48;;;;;;;27.95;17.35;;;;;;;;;;5036111;28;20032;-49
2021/11/29 10:01:17;;;;;;;30.48;18.08;;;;;;;;;;5036288;28;20022;-47
2021/11/29 10:03:43;;;;;;;30.92;18.45;;;;;;;;;;5036260;28;20497;-46
2021/11/29 10:06:09;;;;;;;37.05;21.17;;;;;;;;;;5036265;28;20025;-58
2021/11/29 10:08:38;;;;;;;29.63;19.67;;;;;;;;;;5036012;28;20056;-54
2021/11/29 10:11:06;;;;;;;24.42;17.10;;;;;;;;;;5034732;28;20374;-54
2021/11/29 10:13:51;;;;;;;26.02;15.98;;;;;;;;;;5035634;28;20033;-55
2021/11/29 10:16:38;;;;;;;27.10;17.45;;;;;;;;;;5036211;28;20048;-55
2021/11/29 10:19:05;;;;;;;36.08;21.92;;;;;;;;;;5035821;28;20540;-53
2021/11/29 10:21:32;;;;;;;44.10;24.88;;;;;;;;;;5035741;28;20052;-45
2021/11/29 10:24:01;;;;;;;34.13;22.55;;;;;;;;;;5035857;28;20067;-47
2021/11/29 10:26:27;;;;;;;42.00;26.00;;;;;;;;;;5034824;28;20048;-47
2021/11/29 10:28:57;;;;;;;42.92;25.55;;;;;;;;;;5035744;28;20029;-46
2021/11/29 10:31:28;;;;;;;44.13;27.67;;;;;;;;;;5035813;28;20044;-45
2021/11/29 10:34:00;;;;;;;37.03;22.70;;;;;;;;;;5035714;28;20175;-46
2021/11/29 10:36:28;;;;;;;32.65;21.33;;;;;;;;;;5035642;28;20053;-45
2021/11/29 10:38:58;;;;;;;31.02;21.05;;;;;;;;;;5035476;28;20029;-46
2021/11/29 10:41:26;;;;;;;31.05;20.20;;;;;;;;;;5035398;28;20064;-45
2021/11/29 10:43:53;;;;;;;24.55;17.30;;;;;;;;;;5035398;28;20060;-45
2021/11/29 10:46:24;;;;;;;29.38;18.40;;;;;;;;;;5035277;28;20178;-45
2021/11/29 10:48:51;;;;;;;56.08;25.10;;;;;;;;;;5035234;28;20032;-45
2021/11/29 10:51:20;;;;;;;36.63;20.27;;;;;;;;;;5033779;28;20397;-45
2021/11/29 10:53:51;;;;;;;26.77;17.27;;;;;;;;;;5034544;28;20026;-45
2021/11/29 10:56:17;;;;;;;30.15;19.40;;;;;;;;;;5034837;28;20032;-45
2021/11/29 10:58:48;;;;;;;37.50;19.65;;;;;;;;;;5035059;28;20022;-46
2021/11/29 11:01:16;;;;;;;37.83;22.00;;;;;;;;;;5035181;28;20075;-44
2021/11/29 11:03:50;;;;;;;29.05;18.35;;;;;;;;;;5033614;28;20033;-51
2021/11/29 11:06:16;;;;;;;43.20;23.10;;;;;;;;;;5034960;28;20044;-52
2021/11/29 11:08:44;;;;;;;32.70;19.27;;;;;;;;;;5034933;28;20029;-52
2021/11/29 11:11:33;;;;;;;32.60;19.25;;;;;;;;;;5034885;28;20021;-52
2021/11/29 11:14:07;;;;;;;29.92;19.08;;;;;;;;;;5034422;28;20059;-50
2021/11/29 11:16:40;;;;;;;46.58;24.23;;;;;;;;;;5034909;28;20030;-51
2021/11/29 11:19:08;;;;;;;68.80;33.30;;;;;;;;;;5035009;28;20032;-51
2021/11/29 11:21:34;;;;;;;45.28;24.90;;;;;;;;;;5034892;28;20047;-51
2021/11/29 11:24:19;;;;;;;51.35;26.25;;;;;;;;;;5034582;28;20025;-47
2021/11/29 11:26:46;;;;;;;33.63;18.88;;;;;;;;;;5034321;28;20058;-50
2021/11/29 11:29:14;;;;;;;33.38;18.95;;;;;;;;;;5034787;28;20025;-50
2021/11/29 11:31:40;;;;;;;33.33;20.90;;;;;;;;;;5033239;28;20075;-47
2021/11/29 11:34:06;;;;;;;35.55;22.50;;;;;;;;;;5034363;28;20021;-45
2021/11/29 11:36:32;;;;;;;35.17;19.85;;;;;;;;;;5034720;28;20017;-46
2021/11/29 11:39:05;;;;;;;27.05;17.95;;;;;;;;;;5034941;28;20032;-44
2021/11/29 11:41:34;;;;;;;30.40;17.95;;;;;;;;;;5034259;28;20026;-48
2021/11/29 11:44:00;;;;;;;26.55;18.65;;;;;;;;;;5034205;28;20037;-46
2021/11/29 11:46:28;;;;;;;28.17;19.42;;;;;;;;;;5034117;28;20083;-44
2021/11/29 11:48:57;;;;;;;32.08;19.90;;;;;;;;;;5034303;28;20092;-46
2021/11/29 11:51:23;;;;;;;28.55;19.83;;;;;;;;;;5034165;28;20032;-52
2021/11/29 11:53:50;;;;;;;27.80;17.17;;;;;;;;;;5034044;28;20044;-44
2021/11/29 11:56:16;;;;;;;29.55;18.85;;;;;;;;;;5034430;28;20029;-46
2021/11/29 11:58:47;;;;;;;28.80;18.25;;;;;;;;;;5033973;28;20065;-46
2021/11/29 12:01:16;;;;;;;26.55;16.77;;;;;;;;;;5033920;28;20080;-49
2021/11/29 12:03:46;;;;;;;27.27;16.85;;;;;;;;;;5033943;28;20037;-53
2021/11/29 12:06:15;;;;;;;30.50;18.75;;;;;;;;;;5033740;28;20021;-52
2021/11/29 12:09:01;;;;;;;28.88;18.50;;;;;;;;;;5033927;28;20382;-45
2021/11/29 12:11:34;;;;;;;24.70;15.90;;;;;;;;;;5033963;28;20461;-47
2021/11/29 12:14:00;;;;;;;34.60;18.90;;;;;;;;;;5033523;28;20060;-51
2021/11/29 12:16:34;;;;;;;50.22;24.50;;;;;;;;;;5033829;28;20381;-53
2021/11/29 12:19:00;;;;;;;53.17;26.38;;;;;;;;;;5033749;28;20025;-46
2021/11/29 12:21:27;;;;;;;49.60;25.05;;;;;;;;;;5033479;28;20033;-51
2021/11/29 12:24:01;;;;;;;51.42;26.35;;;;;;;;;;5033622;28;20025;-52
2021/11/29 12:26:48;;;;;;;39.75;20.92;;;;;;;;;;5033759;28;20477;-46
2021/11/29 12:29:20;;;;;;;42.15;20.55;;;;;;;;;;5033683;28;20501;-47
2021/11/29 12:32:02;;;;;;;31.10;17.40;;;;;;;;;;5033588;28;20025;-51
2021/11/29 12:34:52;;;;;;;30.77;16.77;;;;;;;;;;5033716;28;20394;-45
2021/11/29 12:37:20;;;;;;;25.83;16.60;;;;;;;;;;5033688;28;20543;-52
2021/11/29 12:39:49;;;;;;;25.58;15.57;;;;;;;;;;5033344;28;20040;-49
2021/11/29 12:42:22;;;;;;;21.67;12.55;;;;;;;;;;5033114;28;20428;-50
2021/11/29 12:44:51;;;;;;;17.17;11.27;;;;;;;;;;5033459;28;20079;-50
2021/11/29 12:47:20;;;;;;;23.40;13.02;;;;;;;;;;5033195;28;20021;-49
2021/11/29 12:49:47;;;;;;;29.42;14.65;;;;;;;;;;5033357;28;20478;-50
2021/11/29 12:52:33;;;;;;;21.45;13.00;;;;;;;;;;5033108;28;20470;-46
2021/11/29 12:54:59;;;;;;;24.20;12.85;;;;;;;;;;5033091;28;20025;-51
2021/11/29 12:57:28;;;;;;;22.08;13.95;;;;;;;;;;5033174;28;20447;-51
2021/11/29 12:59:59;;;;;;;31.90;18.92;;;;;;;;;;5033432;28;20036;-48
2021/11/29 13:02:37;;;;;;;27.75;14.13;;;;;;;;;;5033196;28;20037;-47
2021/11/29 13:05:23;;;;;;;23.75;13.85;;;;;;;;;;5033325;28;20029;-52
2021/11/29 13:08:06;;;;;;;25.65;13.65;;;;;;;;;;5033234;28;20022;-46
2021/11/29 13:10:44;;;;;;;24.65;14.77;;;;;;;;;;5033040;28;20029;-51
2021/11/29 13:13:22;;;;;;;23.45;15.48;;;;;;;;;;5032760;28;20477;-48
2021/11/29 13:16:11;;;;;;;28.88;16.58;;;;;;;;;;5032702;28;20498;-52
2021/11/29 13:21:26;;;;;;;25.02;14.15;;;;;;;;;;5037266;28;20072;-52
2021/11/29 13:24:02;;;;;;;30.60;14.95;;;;;;;;;;5036923;28;20021;-45
2021/11/29 13:26:30;;;;;;;25.33;14.98;;;;;;;;;;5037036;28;20071;-47
2021/11/29 13:28:57;;;;;;;26.48;16.05;;;;;;;;;;5036813;28;20025;-45
2021/11/29 13:31:26;;;;;;;28.58;14.55;;;;;;;;;;5035646;28;20373;-52
2021/11/29 13:33:54;;;;;;;20.60;13.77;;;;;;;;;;5036722;28;20033;-50
2021/11/29 13:36:21;;;;;;;20.95;12.60;;;;;;;;;;5036700;28;20021;-48
2021/11/29 13:38:48;;;;;;;22.75;14.20;;;;;;;;;;5036757;28;20033;-51
2021/11/29 13:41:19;;;;;;;25.30;13.43;;;;;;;;;;5036651;28;20457;-47
2021/11/29 13:43:45;;;;;;;27.63;15.43;;;;;;;;;;5036351;28;20037;-46
2021/11/29 13:46:15;;;;;;;23.83;14.40;;;;;;;;;;5036630;28;20083;-47
2021/11/29 13:48:42;;;;;;;23.60;14.95;;;;;;;;;;5036695;28;20025;-45
2021/11/29 13:51:08;;;;;;;27.33;15.82;;;;;;;;;;5036474;28;20096;-49
2021/11/29 13:53:43;;;;;;;33.85;18.77;;;;;;;;;;5036304;28;20042;-48
2021/11/29 13:56:11;;;;;;;37.90;21.98;;;;;;;;;;5036593;28;20021;-45
2021/11/29 13:58:38;;;;;;;32.90;18.50;;;;;;;;;;5036152;28;20524;-47
2021/11/29 14:01:11;;;;;;;27.95;14.32;;;;;;;;;;5036382;28;20078;-46
2021/11/29 14:03:48;;;;;;;28.38;15.48;;;;;;;;;;5036439;28;20053;-48
2021/11/29 14:06:16;;;;;;;34.95;20.23;;;;;;;;;;5036085;28;20688;-49
2021/11/29 14:08:46;;;;;;;52.55;27.38;;;;;;;;;;5036088;28;20022;-52
2021/11/29 14:11:14;;;;;;;56.42;29.67;;;;;;;;;;5036199;28;20026;-52
2021/11/29 14:13:42;;;;;;;63.67;34.78;;;;;;;;;;5035771;28;20371;-51
2021/11/29 14:16:19;;;;;;;68.10;34.10;;;;;;;;;;5035904;28;20041;-55
2021/11/29 14:18:49;;;;;;;71.47;37.17;;;;;;;;;;5036552;28;20017;-52
2021/11/29 14:21:20;;;;;;;42.95;24.00;;;;;;;;;;5036012;28;20021;-52
2021/11/29 14:23:54;;;;;;;46.95;25.73;;;;;;;;;;5035825;28;20030;-50
2021/11/29 14:26:28;;;;;;;54.83;28.67;;;;;;;;;;5035907;28;20026;-51
2021/11/29 14:28:55;;;;;;;46.78;25.77;;;;;;;;;;5033272;28;20417;-49
2021/11/29 14:31:23;;;;;;;38.70;21.02;;;;;;;;;;5035432;28;20036;-45
2021/11/29 14:33:50;;;;;;;44.22;23.70;;;;;;;;;;5035441;28;20044;-51